createdAt,value
2023-01-18T00:00:34.261Z,99.99
2023-01-18T00:01:34.198Z,99.99
2023-01-18T00:02:34.121Z,99.99
2023-01-18T00:03:34.078Z,99.99
2023-01-18T00:04:34.067Z,99.99
2023-01-18T00:05:33.979Z,99.99
2023-01-18T00:06:35.495Z,99.99
2023-01-18T00:07:33.882Z,99.99
2023-01-18T00:08:33.844Z,99.99
2023-01-18T00:09:33.790Z,99.99
2023-01-18T00:10:33.734Z,99.99
2023-01-18T00:11:33.693Z,99.99
2023-01-18T00:12:33.647Z,99.99
2023-01-18T00:13:33.621Z,99.99
2023-01-18T00:14:33.576Z,99.99
2023-01-18T00:15:33.512Z,99.99
2023-01-18T00:16:33.504Z,99.99
2023-01-18T00:17:33.982Z,99.99
2023-01-18T00:18:33.359Z,99.99
2023-01-18T00:19:33.322Z,99.99
2023-01-18T00:20:33.255Z,99.99
2023-01-18T00:21:34.083Z,99.99
2023-01-18T00:22:33.162Z,99.99
2023-01-18T00:23:33.117Z,99.99
2023-01-18T00:24:33.077Z,99.99
2023-01-18T00:25:33.936Z,99.99
2023-01-18T00:26:32.967Z,99.99
2023-01-18T00:27:32.925Z,99.99
2023-01-18T00:28:32.876Z,99.99
2023-01-18T00:29:32.828Z,99.99
2023-01-18T00:30:32.792Z,99.99
2023-01-18T00:31:32.740Z,99.99
2023-01-18T00:32:32.682Z,99.99
2023-01-18T00:33:32.635Z,99.99
2023-01-18T00:34:32.583Z,99.99
2023-01-18T00:35:32.566Z,99.99
2023-01-18T00:36:32.512Z,99.99
2023-01-18T00:37:32.456Z,99.99
2023-01-18T00:38:32.391Z,99.99
2023-01-18T00:39:32.352Z,99.99
2023-01-18T00:40:32.302Z,99.99
2023-01-18T00:41:32.268Z,99.99
2023-01-18T00:42:32.213Z,99.99
2023-01-18T00:43:32.164Z,99.99
2023-01-18T00:44:32.125Z,99.99
2023-01-18T00:45:32.094Z,99.99
2023-01-18T00:46:32.011Z,99.99
2023-01-18T00:47:31.967Z,99.99
2023-01-18T00:48:31.933Z,99.99
2023-01-18T00:49:31.875Z,99.99
2023-01-18T00:50:32.496Z,99.99
2023-01-18T00:51:31.778Z,99.99
2023-01-18T00:52:31.721Z,99.99
2023-01-18T00:53:31.679Z,99.99
2023-01-18T00:54:32.478Z,99.99
2023-01-18T00:55:31.600Z,99.99
2023-01-18T00:56:31.530Z,99.99
2023-01-18T00:57:31.486Z,99.99
2023-01-18T00:58:31.433Z,99.99
2023-01-18T00:59:31.387Z,99.99
2023-01-18T01:00:31.342Z,99.99
2023-01-18T01:01:31.369Z,99.99
2023-01-18T01:02:31.255Z,99.99
2023-01-18T01:03:31.198Z,99.99
2023-01-18T01:04:31.153Z,99.99
2023-01-18T01:05:31.101Z,99.99
2023-01-18T01:06:31.048Z,99.99
2023-01-18T01:07:31.012Z,99.99
2023-01-18T01:08:30.953Z,99.99
2023-01-18T01:09:30.916Z,99.99
2023-01-18T01:10:31.481Z,99.99
2023-01-18T01:11:31.481Z,99.99
2023-01-18T01:12:30.767Z,99.99
2023-01-18T01:13:31.482Z,99.99
2023-01-18T01:14:30.667Z,99.99
2023-01-18T01:15:31.072Z,99.99
2023-01-18T01:16:30.633Z,99.99
2023-01-18T01:17:30.526Z,99.99
2023-01-18T01:18:30.628Z,99.99
2023-01-18T01:19:32.011Z,99.99
2023-01-18T01:20:31.090Z,99.99
2023-01-18T01:21:30.353Z,99.99
2023-01-18T01:22:30.436Z,99.99
2023-01-18T01:23:30.240Z,99.99
2023-01-18T01:24:30.189Z,99.99
2023-01-18T01:25:30.159Z,99.99
2023-01-18T01:26:30.097Z,99.99
2023-01-18T01:27:30.047Z,99.99
2023-01-18T01:28:30.005Z,99.99
2023-01-18T01:29:29.970Z,99.99
2023-01-18T01:30:29.960Z,99.99
2023-01-18T01:31:29.852Z,99.99
2023-01-18T01:32:29.804Z,99.99
2023-01-18T01:33:29.758Z,99.99
2023-01-18T01:34:29.724Z,99.99
2023-01-18T01:35:29.674Z,99.99
2023-01-18T01:36:29.613Z,99.99
2023-01-18T01:37:29.577Z,99.99
2023-01-18T01:38:29.519Z,99.99
2023-01-18T01:39:29.471Z,99.99
2023-01-18T01:40:29.437Z,99.99
2023-01-18T01:41:29.375Z,99.99
2023-01-18T01:42:29.322Z,99.99
2023-01-18T01:43:29.278Z,99.99
2023-01-18T01:44:29.233Z,99.99
2023-01-18T01:45:29.186Z,99.99
2023-01-18T01:46:29.152Z,99.99
2023-01-18T01:47:29.103Z,99.99
2023-01-18T01:48:29.032Z,99.99
2023-01-18T01:49:28.990Z,99.99
2023-01-18T01:50:28.952Z,99.99
2023-01-18T01:51:28.893Z,99.99
2023-01-18T01:52:28.860Z,99.99
2023-01-18T01:53:28.796Z,99.99
2023-01-18T01:54:28.753Z,99.99
2023-01-18T01:55:28.702Z,99.99
2023-01-18T01:56:28.656Z,99.99
2023-01-18T01:57:28.618Z,99.99
2023-01-18T01:58:28.551Z,99.99
2023-01-18T01:59:28.516Z,99.99
2023-01-18T02:00:28.456Z,99.99
2023-01-18T02:01:28.512Z,99.99
2023-01-18T02:02:28.405Z,99.99
2023-01-18T02:03:28.328Z,99.99
2023-01-18T02:04:28.268Z,99.99
2023-01-18T02:05:28.222Z,99.99
2023-01-18T02:06:28.180Z,99.99
2023-01-18T02:07:28.134Z,99.99
2023-01-18T02:08:28.083Z,99.99
2023-01-18T02:09:28.068Z,99.99
2023-01-18T02:10:27.976Z,99.99
2023-01-18T02:11:27.933Z,99.99
2023-01-18T02:12:27.895Z,99.99
2023-01-18T02:13:27.857Z,99.99
2023-01-18T02:14:27.784Z,99.99
2023-01-18T02:15:27.756Z,99.99
2023-01-18T02:16:27.757Z,99.99
2023-01-18T02:17:27.657Z,99.99
2023-01-18T02:18:27.593Z,99.99
2023-01-18T02:19:27.548Z,99.99
2023-01-18T02:20:27.499Z,99.99
2023-01-18T02:21:27.466Z,99.99
2023-01-18T02:22:27.401Z,99.99
2023-01-18T02:23:27.357Z,99.99
2023-01-18T02:24:27.307Z,99.99
2023-01-18T02:25:27.261Z,99.99
2023-01-18T02:26:27.220Z,99.99
2023-01-18T02:27:27.178Z,99.99
2023-01-18T02:28:27.114Z,99.99
2023-01-18T02:29:27.068Z,99.99
2023-01-18T02:30:27.021Z,99.99
2023-01-18T02:31:26.996Z,99.99
2023-01-18T02:32:26.925Z,99.99
2023-01-18T02:33:26.877Z,99.99
2023-01-18T02:34:26.839Z,99.99
2023-01-18T02:35:26.785Z,99.99
2023-01-18T02:36:26.754Z,99.99
2023-01-18T02:37:26.699Z,99.99
2023-01-18T02:38:26.633Z,99.99
2023-01-18T02:39:27.491Z,99.99
2023-01-18T02:40:26.539Z,99.99
2023-01-18T02:41:26.492Z,99.99
2023-01-18T02:42:26.457Z,99.99
2023-01-18T02:43:26.394Z,99.99
2023-01-18T02:44:26.348Z,99.99
2023-01-18T02:45:26.310Z,99.99
2023-01-18T02:46:26.307Z,99.99
2023-01-18T02:47:26.200Z,99.99
2023-01-18T02:48:26.158Z,99.99
2023-01-18T02:49:26.108Z,99.99
2023-01-18T02:50:26.060Z,99.99
2023-01-18T02:51:26.035Z,99.99
2023-01-18T02:52:25.962Z,99.99
2023-01-18T02:53:25.920Z,99.99
2023-01-18T02:54:25.864Z,99.99
2023-01-18T02:55:25.849Z,99.99
2023-01-18T02:56:25.810Z,99.99
2023-01-18T02:57:25.725Z,99.99
2023-01-18T02:58:25.679Z,99.99
2023-01-18T02:59:25.630Z,99.99
2023-01-18T03:00:25.581Z,99.99
2023-01-18T03:01:25.634Z,99.99
2023-01-18T03:02:25.524Z,99.99
2023-01-18T03:03:25.451Z,99.99
2023-01-18T03:04:25.412Z,99.99
2023-01-18T03:05:25.344Z,99.99
2023-01-18T03:06:25.289Z,99.99
2023-01-18T03:07:25.243Z,99.99
2023-01-18T03:08:25.193Z,99.99
2023-01-18T03:09:26.005Z,99.99
2023-01-18T03:10:25.107Z,99.99
2023-01-18T03:11:25.049Z,99.99
2023-01-18T03:12:24.999Z,99.99
2023-01-18T03:13:24.960Z,99.99
2023-01-18T03:14:24.907Z,99.99
2023-01-18T03:15:25.501Z,99.99
2023-01-18T03:16:24.820Z,99.99
2023-01-18T03:17:24.762Z,99.99
2023-01-18T03:18:24.711Z,99.99
2023-01-18T03:19:24.666Z,99.99
2023-01-18T03:20:25.513Z,99.99
2023-01-18T03:21:24.569Z,99.99
2023-01-18T03:22:24.530Z,99.99
2023-01-18T03:23:24.471Z,99.99
2023-01-18T03:24:24.425Z,99.99
2023-01-18T03:25:24.380Z,99.99
2023-01-18T03:26:26.039Z,99.99
2023-01-18T03:27:24.295Z,99.99
2023-01-18T03:28:24.236Z,99.99
2023-01-18T03:29:24.184Z,99.99
2023-01-18T03:30:24.134Z,99.99
2023-01-18T03:31:24.177Z,99.99
2023-01-18T03:32:24.063Z,99.99
2023-01-18T03:33:24.009Z,99.99
2023-01-18T03:34:23.947Z,99.99
2023-01-18T03:35:23.894Z,99.99
2023-01-18T03:36:23.871Z,99.99
2023-01-18T03:37:23.802Z,99.99
2023-01-18T03:38:23.751Z,99.99
2023-01-18T03:39:23.721Z,99.99
2023-01-18T03:40:23.658Z,99.99
2023-01-18T03:41:23.608Z,99.99
2023-01-18T03:42:23.556Z,99.99
2023-01-18T03:43:23.511Z,99.99
2023-01-18T03:44:23.463Z,99.99
2023-01-18T03:45:23.435Z,99.99
2023-01-18T03:46:23.386Z,99.99
2023-01-18T03:47:23.332Z,99.99
2023-01-18T03:48:23.275Z,99.99
2023-01-18T03:49:23.227Z,99.99
2023-01-18T03:50:23.175Z,99.99
2023-01-18T03:51:23.145Z,99.99
2023-01-18T03:52:23.078Z,99.99
2023-01-18T03:53:23.031Z,99.99
2023-01-18T03:54:22.985Z,99.99
2023-01-18T03:55:22.935Z,99.99
2023-01-18T03:56:22.885Z,99.99
2023-01-18T03:57:22.853Z,99.99
2023-01-18T03:58:22.806Z,99.99
2023-01-18T03:59:22.744Z,99.99
2023-01-18T04:00:22.691Z,99.99
2023-01-18T04:01:22.810Z,99.99
2023-01-18T04:02:22.648Z,99.99
2023-01-18T04:03:22.548Z,99.99
2023-01-18T04:04:22.498Z,99.99
2023-01-18T04:05:22.452Z,99.99
2023-01-18T04:06:22.400Z,99.99
2023-01-18T04:07:22.366Z,99.99
2023-01-18T04:08:22.310Z,99.99
2023-01-18T04:09:22.263Z,99.99
2023-01-18T04:10:22.236Z,99.99
2023-01-18T04:11:22.167Z,99.99
2023-01-18T04:12:23.446Z,99.99
2023-01-18T04:13:22.084Z,99.99
2023-01-18T04:14:22.023Z,99.99
2023-01-18T04:15:21.971Z,99.99
2023-01-18T04:16:22.015Z,99.99
2023-01-18T04:17:21.878Z,99.99
2023-01-18T04:18:21.841Z,99.99
2023-01-18T04:19:23.541Z,99.99
2023-01-18T04:20:21.736Z,99.99
2023-01-18T04:21:21.680Z,99.99
2023-01-18T04:22:21.640Z,99.99
2023-01-18T04:23:21.584Z,99.99
2023-01-18T04:24:21.544Z,99.99
2023-01-18T04:25:21.506Z,99.99
2023-01-18T04:26:21.455Z,99.99
2023-01-18T04:27:24.162Z,99.99
2023-01-18T04:28:29.523Z,99.99
2023-01-18T04:29:21.295Z,99.99
2023-01-18T04:30:21.253Z,99.99
2023-01-18T04:31:21.235Z,99.99
2023-01-18T04:32:21.181Z,99.99
2023-01-18T04:33:21.106Z,99.99
2023-01-18T04:34:21.058Z,99.99
2023-01-18T04:35:21.087Z,99.99
2023-01-18T04:36:20.964Z,99.99
2023-01-18T04:37:20.924Z,99.99
2023-01-18T04:38:20.864Z,99.99
2023-01-18T04:39:20.828Z,99.99
2023-01-18T04:40:20.773Z,99.99
2023-01-18T04:41:20.720Z,99.99
2023-01-18T04:42:20.681Z,99.99
2023-01-18T04:43:20.626Z,99.99
2023-01-18T04:44:20.578Z,99.99
2023-01-18T04:45:20.529Z,99.99
2023-01-18T04:46:20.519Z,99.99
2023-01-18T04:47:20.427Z,99.99
2023-01-18T04:48:20.410Z,99.99
2023-01-18T04:49:20.350Z,99.99
2023-01-18T04:50:20.294Z,99.99
2023-01-18T04:51:20.245Z,99.99
2023-01-18T04:52:20.189Z,99.99
2023-01-18T04:53:20.139Z,99.99
2023-01-18T04:54:20.103Z,99.99
2023-01-18T04:55:20.041Z,99.99
2023-01-18T04:56:20.006Z,99.99
2023-01-18T04:57:19.953Z,99.99
2023-01-18T04:58:19.902Z,99.99
2023-01-18T04:59:19.850Z,99.99
2023-01-18T05:00:19.820Z,99.99
2023-01-18T05:01:19.861Z,99.99
2023-01-18T05:02:19.729Z,99.99
2023-01-18T05:03:19.660Z,99.99
2023-01-18T05:04:19.623Z,99.99
2023-01-18T05:05:19.562Z,99.99
2023-01-18T05:06:19.516Z,99.99
2023-01-18T05:07:19.473Z,99.99
2023-01-18T05:08:19.417Z,99.99
2023-01-18T05:09:19.368Z,99.99
2023-01-18T05:10:19.324Z,99.99
2023-01-18T05:11:19.277Z,99.99
2023-01-18T05:12:19.226Z,99.99
2023-01-18T05:13:19.194Z,99.99
2023-01-18T05:14:19.133Z,99.99
2023-01-18T05:15:19.081Z,99.99
2023-01-18T05:16:19.201Z,99.99
2023-01-18T05:17:18.989Z,99.99
2023-01-18T05:18:18.935Z,99.99
2023-01-18T05:19:18.897Z,99.99
2023-01-18T05:20:18.846Z,99.99
2023-01-18T05:21:18.811Z,99.99
2023-01-18T05:22:18.744Z,99.99
2023-01-18T05:23:18.694Z,99.99
2023-01-18T05:24:18.649Z,99.99
2023-01-18T05:25:18.615Z,99.99
2023-01-18T05:26:18.555Z,99.99
2023-01-18T05:27:18.499Z,99.99
2023-01-18T05:28:18.457Z,99.99
2023-01-18T05:29:18.404Z,99.99
2023-01-18T05:30:18.361Z,99.99
2023-01-18T05:31:18.341Z,99.99
2023-01-18T05:32:18.290Z,99.99
2023-01-18T05:33:18.228Z,99.99
2023-01-18T05:34:18.173Z,99.99
2023-01-18T05:35:18.123Z,99.99
2023-01-18T05:36:18.077Z,99.99
2023-01-18T05:37:18.023Z,99.99
2023-01-18T05:38:17.971Z,99.99
2023-01-18T05:39:17.946Z,99.99
2023-01-18T05:40:17.875Z,99.99
2023-01-18T05:41:17.827Z,99.99
2023-01-18T05:42:17.785Z,99.99
2023-01-18T05:43:17.735Z,99.99
2023-01-18T05:44:17.698Z,99.99
2023-01-18T05:45:17.646Z,99.99
2023-01-18T05:46:17.635Z,99.99
2023-01-18T05:47:17.538Z,99.99
2023-01-18T05:48:17.496Z,99.99
2023-01-18T05:49:17.440Z,99.99
2023-01-18T05:50:17.397Z,99.99
2023-01-18T05:51:17.354Z,99.99
2023-01-18T05:52:17.308Z,99.99
2023-01-18T05:53:17.248Z,99.99
2023-01-18T05:54:17.209Z,99.99
2023-01-18T05:55:17.151Z,99.99
2023-01-18T05:56:17.132Z,99.99
2023-01-18T05:57:17.059Z,99.99
2023-01-18T05:58:17.016Z,99.99
2023-01-18T05:59:16.966Z,99.99
2023-01-18T06:00:16.915Z,99.99
2023-01-18T06:01:16.932Z,99.99
2023-01-18T06:02:16.930Z,99.99
2023-01-18T06:03:16.767Z,99.99
2023-01-18T06:04:16.768Z,99.99
2023-01-18T06:05:16.718Z,99.99
2023-01-18T06:06:16.629Z,99.99
2023-01-18T06:07:16.573Z,99.99
2023-01-18T06:08:16.541Z,99.99
2023-01-18T06:09:16.482Z,99.99
2023-01-18T06:10:16.439Z,99.99
2023-01-18T06:11:16.391Z,99.99
2023-01-18T06:12:16.344Z,99.99
2023-01-18T06:13:16.287Z,99.99
2023-01-18T06:14:16.260Z,99.99
2023-01-18T06:15:16.191Z,99.99
2023-01-18T06:16:16.165Z,99.99
2023-01-18T06:17:16.100Z,99.99
2023-01-18T06:18:16.055Z,99.99
2023-01-18T06:19:16.001Z,99.99
2023-01-18T06:20:15.971Z,99.99
2023-01-18T06:21:15.902Z,99.99
2023-01-18T06:22:15.877Z,99.99
2023-01-18T06:23:15.809Z,99.99
2023-01-18T06:24:15.761Z,99.99
2023-01-18T06:25:15.721Z,99.99
2023-01-18T06:26:15.666Z,99.99
2023-01-18T06:27:15.612Z,99.99
2023-01-18T06:28:15.566Z,99.99
2023-01-18T06:29:15.519Z,99.99
2023-01-18T06:30:15.468Z,99.99
2023-01-18T06:31:15.438Z,99.99
2023-01-18T06:32:15.454Z,99.99
2023-01-18T06:33:15.332Z,99.99
2023-01-18T06:34:15.281Z,99.99
2023-01-18T06:35:15.232Z,99.99
2023-01-18T06:36:15.187Z,99.99
2023-01-18T06:37:15.149Z,99.99
2023-01-18T06:38:15.086Z,99.99
2023-01-18T06:39:15.036Z,99.99
2023-01-18T06:40:14.992Z,99.99
2023-01-18T06:41:14.955Z,99.99
2023-01-18T06:42:14.905Z,99.99
2023-01-18T06:43:14.854Z,99.99
2023-01-18T06:44:14.804Z,99.99
2023-01-18T06:45:14.755Z,99.99
2023-01-18T06:46:14.751Z,99.99
2023-01-18T06:47:14.654Z,99.99
2023-01-18T06:48:14.608Z,99.99
2023-01-18T06:49:14.584Z,99.99
2023-01-18T06:50:14.508Z,99.99
2023-01-18T06:51:14.464Z,99.99
2023-01-18T06:52:14.425Z,99.99
2023-01-18T06:53:14.366Z,99.99
2023-01-18T06:54:14.320Z,99.99
2023-01-18T06:55:14.291Z,99.99
2023-01-18T06:56:14.224Z,99.99
2023-01-18T06:57:14.175Z,99.99
2023-01-18T06:58:14.127Z,99.99
2023-01-18T06:59:14.080Z,99.99
2023-01-18T07:00:14.061Z,99.99
2023-01-18T07:01:14.140Z,99.99
2023-01-18T07:02:14.031Z,99.99
2023-01-18T07:03:13.895Z,99.99
2023-01-18T07:04:13.937Z,99.99
2023-01-18T07:05:13.794Z,99.99
2023-01-18T07:06:13.766Z,99.99
2023-01-18T07:07:13.689Z,99.99
2023-01-18T07:08:13.666Z,99.99
2023-01-18T07:09:13.599Z,99.99
2023-01-18T07:10:16.190Z,99.99
2023-01-18T07:11:13.501Z,99.99
2023-01-18T07:12:13.464Z,99.99
2023-01-18T07:13:13.405Z,99.99
2023-01-18T07:14:13.391Z,99.99
2023-01-18T07:15:21.504Z,99.99
2023-01-18T07:16:13.267Z,99.99
2023-01-18T07:17:13.212Z,99.99
2023-01-18T07:18:13.181Z,99.99
2023-01-18T07:19:13.116Z,99.99
2023-01-18T07:20:13.089Z,99.99
2023-01-18T07:21:15.165Z,99.99
2023-01-18T07:22:12.972Z,99.99
2023-01-18T07:23:12.922Z,99.99
2023-01-18T07:24:12.878Z,99.99
2023-01-18T07:25:12.857Z,99.99
2023-01-18T07:26:12.781Z,99.99
2023-01-18T07:27:12.733Z,99.99
2023-01-18T07:28:12.686Z,99.99
2023-01-18T07:29:12.632Z,99.99
2023-01-18T07:30:12.583Z,99.99
2023-01-18T07:31:12.547Z,99.99
2023-01-18T07:32:12.524Z,99.99
2023-01-18T07:33:12.446Z,99.99
2023-01-18T07:34:12.413Z,99.99
2023-01-18T07:35:12.345Z,99.99
2023-01-18T07:36:12.297Z,99.99
2023-01-18T07:37:12.247Z,99.99
2023-01-18T07:38:12.224Z,99.99
2023-01-18T07:39:12.155Z,99.99
2023-01-18T07:40:12.110Z,99.99
2023-01-18T07:41:12.053Z,99.99
2023-01-18T07:42:12.012Z,99.99
2023-01-18T07:43:11.979Z,99.99
2023-01-18T07:44:11.943Z,99.99
2023-01-18T07:45:11.862Z,99.99
2023-01-18T07:46:11.916Z,99.99
2023-01-18T07:47:11.767Z,99.99
2023-01-18T07:48:11.716Z,99.99
2023-01-18T07:49:11.689Z,99.99
2023-01-18T07:50:11.672Z,99.99
2023-01-18T07:51:11.581Z,99.99
2023-01-18T07:52:11.526Z,99.99
2023-01-18T07:53:11.476Z,99.99
2023-01-18T07:54:11.445Z,99.99
2023-01-18T07:55:11.381Z,99.99
2023-01-18T07:56:11.344Z,99.99
2023-01-18T07:57:11.282Z,99.99
2023-01-18T07:58:11.236Z,99.99
2023-01-18T07:59:11.192Z,99.99
2023-01-18T08:00:11.165Z,99.99
2023-01-18T08:01:11.164Z,99.99
2023-01-18T08:02:11.147Z,99.99
2023-01-18T08:03:11.062Z,99.99
2023-01-18T08:04:10.947Z,99.99
2023-01-18T08:05:10.897Z,99.99
2023-01-18T08:06:10.855Z,99.99
2023-01-18T08:07:10.801Z,99.99
2023-01-18T08:08:11.426Z,99.99
2023-01-18T08:09:10.707Z,99.99
2023-01-18T08:10:10.665Z,99.99
2023-01-18T08:11:10.622Z,99.99
2023-01-18T08:12:10.562Z,99.99
2023-01-18T08:13:10.518Z,99.99
2023-01-18T08:14:10.484Z,99.99
2023-01-18T08:15:10.424Z,99.99
2023-01-18T08:16:10.438Z,99.99
2023-01-18T08:17:10.323Z,99.99
2023-01-18T08:18:10.274Z,99.99
2023-01-18T08:19:10.239Z,99.99
2023-01-18T08:20:10.191Z,99.99
2023-01-18T08:21:10.127Z,99.99
2023-01-18T08:22:10.099Z,99.99
2023-01-18T08:23:10.031Z,99.99
2023-01-18T08:24:10.013Z,99.99
2023-01-18T08:25:09.942Z,99.99
2023-01-18T08:26:09.890Z,99.99
2023-01-18T08:27:09.850Z,99.99
2023-01-18T08:28:09.803Z,99.99
2023-01-18T08:29:09.749Z,99.99
2023-01-18T08:30:10.090Z,99.99
2023-01-18T08:31:09.845Z,99.99
2023-01-18T08:32:09.607Z,99.99
2023-01-18T08:33:09.560Z,99.99
2023-01-18T08:34:09.509Z,99.99
2023-01-18T08:35:09.468Z,99.99
2023-01-18T08:36:09.415Z,99.99
2023-01-18T08:37:09.396Z,99.99
2023-01-18T08:38:09.319Z,99.99
2023-01-18T08:39:09.274Z,99.99
2023-01-18T08:40:09.232Z,99.99
2023-01-18T08:41:09.184Z,99.99
2023-01-18T08:42:09.133Z,99.99
2023-01-18T08:43:09.103Z,99.99
2023-01-18T08:44:09.044Z,99.99
2023-01-18T08:45:08.995Z,99.99
2023-01-18T08:46:08.998Z,99.99
2023-01-18T08:47:08.909Z,99.99
2023-01-18T08:48:08.850Z,99.99
2023-01-18T08:49:08.827Z,99.99
2023-01-18T08:50:08.988Z,99.99
2023-01-18T08:51:08.721Z,99.99
2023-01-18T08:52:08.663Z,99.99
2023-01-18T08:53:08.619Z,99.99
2023-01-18T08:54:08.574Z,99.99
2023-01-18T08:55:08.534Z,99.99
2023-01-18T08:56:08.492Z,99.99
2023-01-18T08:57:08.444Z,99.99
2023-01-18T08:58:08.384Z,99.99
2023-01-18T08:59:08.367Z,99.99
2023-01-18T09:00:08.287Z,99.99
2023-01-18T09:01:08.288Z,99.99
2023-01-18T09:02:08.240Z,99.99
2023-01-18T09:03:08.224Z,99.99
2023-01-18T09:04:08.105Z,99.99
2023-01-18T09:05:08.061Z,99.99
2023-01-18T09:06:08.023Z,99.99
2023-01-18T09:07:07.983Z,99.99
2023-01-18T09:08:07.924Z,99.99
2023-01-18T09:09:07.881Z,99.99
2023-01-18T09:10:07.821Z,99.99
2023-01-18T09:11:07.789Z,99.99
2023-01-18T09:12:07.738Z,99.99
2023-01-18T09:13:07.688Z,99.99
2023-01-18T09:14:07.640Z,99.99
2023-01-18T09:15:07.593Z,99.99
2023-01-18T09:16:07.680Z,99.99
2023-01-18T09:17:07.524Z,99.99
2023-01-18T09:18:07.456Z,99.99
2023-01-18T09:19:07.423Z,99.99
2023-01-18T09:20:07.422Z,99.99
2023-01-18T09:21:07.313Z,99.99
2023-01-18T09:22:07.270Z,99.99
2023-01-18T09:23:07.249Z,99.99
2023-01-18T09:24:07.190Z,99.99
2023-01-18T09:25:07.133Z,99.99
2023-01-18T09:26:07.086Z,99.99
2023-01-18T09:27:07.046Z,99.99
2023-01-18T09:28:07.001Z,99.69
2023-01-18T09:29:06.981Z,99.80
2023-01-18T09:30:06.902Z,99.29
2023-01-18T09:31:06.883Z,99.99
2023-01-18T09:32:06.818Z,98.20
2023-01-18T09:33:06.784Z,98.52
2023-01-18T09:34:18.862Z,98.62
2023-01-18T09:35:06.691Z,98.20
2023-01-18T09:36:06.632Z,97.68
2023-01-18T09:37:06.591Z,97.78
2023-01-18T09:38:06.546Z,98.05
2023-01-18T09:39:06.500Z,98.05
2023-01-18T09:40:06.477Z,97.59
2023-01-18T09:41:06.421Z,98.17
2023-01-18T09:42:06.370Z,97.71
2023-01-18T09:43:06.332Z,96.88
2023-01-18T09:44:06.291Z,96.73
2023-01-18T09:45:06.252Z,96.31
2023-01-18T09:46:06.205Z,94.90
2023-01-18T09:47:06.150Z,95.63
2023-01-18T09:48:06.112Z,95.94
2023-01-18T09:49:06.063Z,94.98
2023-01-18T09:50:06.045Z,96.79
2023-01-18T09:51:05.980Z,97.31
2023-01-18T09:52:05.930Z,97.06
2023-01-18T09:53:05.909Z,97.27
2023-01-18T09:54:05.845Z,98.39
2023-01-18T09:55:05.807Z,98.08
2023-01-18T09:56:05.769Z,97.88
2023-01-18T09:57:05.738Z,98.19
2023-01-18T09:58:05.674Z,98.29
2023-01-18T09:59:05.658Z,97.77
2023-01-18T10:00:05.587Z,98.60
2023-01-18T10:01:05.679Z,98.66
2023-01-18T10:02:05.566Z,98.14
2023-01-18T10:03:05.459Z,97.72
2023-01-18T10:04:05.409Z,97.98
2023-01-18T10:05:05.374Z,98.60
2023-01-18T10:06:05.331Z,98.66
2023-01-18T10:07:05.283Z,97.94
2023-01-18T10:08:05.234Z,97.47
2023-01-18T10:09:05.197Z,97.95
2023-01-18T10:10:05.145Z,97.37
2023-01-18T10:11:05.110Z,97.62
2023-01-18T10:12:05.070Z,97.83
2023-01-18T10:13:05.042Z,98.14
2023-01-18T10:14:04.975Z,98.25
2023-01-18T10:15:04.980Z,98.25
2023-01-18T10:16:04.908Z,98.46
2023-01-18T10:17:04.841Z,98.56
2023-01-18T10:18:04.794Z,98.56
2023-01-18T10:19:04.761Z,97.72
2023-01-18T10:20:04.718Z,97.72
2023-01-18T10:21:04.668Z,97.78
2023-01-18T10:22:04.616Z,97.58
2023-01-18T10:23:04.601Z,97.58
2023-01-18T10:24:04.528Z,97.99
2023-01-18T10:25:04.505Z,97.99
2023-01-18T10:26:04.436Z,97.43
2023-01-18T10:27:04.399Z,97.74
2023-01-18T10:28:04.352Z,97.22
2023-01-18T10:29:13.615Z,97.16
2023-01-18T10:30:04.277Z,97.68
2023-01-18T10:31:04.233Z,96.91
2023-01-18T10:32:04.190Z,97.64
2023-01-18T10:33:04.138Z,96.80
2023-01-18T10:34:04.101Z,97.85
2023-01-18T10:35:04.045Z,97.43
2023-01-18T10:36:04.008Z,97.07
2023-01-18T10:37:03.965Z,97.59
2023-01-18T10:38:03.917Z,96.76
2023-01-18T10:39:03.870Z,96.09
2023-01-18T10:40:03.834Z,95.99
2023-01-18T10:41:03.804Z,96.76
2023-01-18T10:42:06.119Z,96.76
2023-01-18T10:43:03.700Z,96.91
2023-01-18T10:44:03.649Z,96.34
2023-01-18T10:45:03.613Z,96.49
2023-01-18T10:46:03.620Z,96.80
2023-01-18T10:47:03.556Z,96.85
2023-01-18T10:48:03.474Z,96.39
2023-01-18T10:49:03.439Z,96.22
2023-01-18T10:50:03.387Z,96.70
2023-01-18T10:51:03.351Z,96.85
2023-01-18T10:52:03.307Z,96.39
2023-01-18T10:53:03.275Z,96.49
2023-01-18T10:54:03.212Z,96.91
2023-01-18T10:55:03.192Z,97.17
2023-01-18T10:56:03.118Z,96.45
2023-01-18T10:57:03.079Z,96.61
2023-01-18T10:58:03.047Z,95.73
2023-01-18T10:59:03.000Z,95.47
2023-01-18T11:00:02.949Z,95.38
2023-01-18T11:01:02.981Z,94.55
2023-01-18T11:02:03.020Z,94.82
2023-01-18T11:03:02.840Z,94.40
2023-01-18T11:04:02.785Z,94.09
2023-01-18T11:05:02.732Z,94.98
2023-01-18T11:06:02.683Z,94.15
2023-01-18T11:07:02.641Z,94.36
2023-01-18T11:08:02.806Z,94.46
2023-01-18T11:09:02.556Z,94.48
2023-01-18T11:10:02.521Z,94.27
2023-01-18T11:11:02.480Z,93.29
2023-01-18T11:12:02.427Z,91.47
2023-01-18T11:13:02.385Z,92.20
2023-01-18T11:14:02.341Z,92.41
2023-01-18T11:15:02.316Z,91.53
2023-01-18T11:16:02.292Z,91.49
2023-01-18T11:17:02.246Z,90.77
2023-01-18T11:18:02.176Z,90.83
2023-01-18T11:19:02.130Z,89.79
2023-01-18T11:20:02.285Z,89.62
2023-01-18T11:21:02.068Z,90.35
2023-01-18T11:22:02.015Z,90.87
2023-01-18T11:23:02.477Z,91.28
2023-01-18T11:24:01.918Z,89.48
2023-01-18T11:25:01.872Z,90.31
2023-01-18T11:26:01.849Z,90.00
2023-01-18T11:27:01.839Z,88.34
2023-01-18T11:28:02.054Z,89.50
2023-01-18T11:29:01.728Z,91.31
2023-01-18T11:30:01.678Z,91.58
2023-01-18T11:31:01.634Z,91.80
2023-01-18T11:32:01.639Z,91.28
2023-01-18T11:33:01.729Z,91.18
2023-01-18T11:34:01.502Z,91.08
2023-01-18T11:35:01.497Z,89.48
2023-01-18T11:36:01.418Z,90.83
2023-01-18T11:37:01.374Z,89.34
2023-01-18T11:38:01.924Z,89.09
2023-01-18T11:39:01.293Z,87.68
2023-01-18T11:40:01.242Z,88.90
2023-01-18T11:41:01.241Z,90.50
2023-01-18T11:42:01.163Z,91.02
2023-01-18T11:43:01.126Z,91.80
2023-01-18T11:44:01.086Z,91.49
2023-01-18T11:45:01.059Z,91.55
2023-01-18T11:46:01.064Z,89.65
2023-01-18T11:47:00.983Z,88.40
2023-01-18T11:48:01.333Z,88.61
2023-01-18T11:49:00.870Z,89.75
2023-01-18T11:50:05.599Z,88.46
2023-01-18T11:51:00.798Z,88.36
2023-01-18T11:52:00.745Z,87.18
2023-01-18T11:53:00.707Z,88.34
2023-01-18T11:54:00.660Z,88.92
2023-01-18T11:55:00.620Z,89.17
2023-01-18T11:56:00.578Z,90.23
2023-01-18T11:57:00.547Z,91.74
2023-01-18T11:58:00.837Z,91.37
2023-01-18T11:59:00.474Z,91.64
2023-01-18T12:00:00.411Z,91.02
2023-01-18T12:01:00.403Z,91.37
2023-01-18T12:02:00.393Z,92.93
2023-01-18T12:03:00.714Z,92.57
2023-01-18T12:04:00.237Z,91.60
2023-01-18T12:05:00.200Z,91.08
2023-01-18T12:06:00.157Z,91.28
2023-01-18T12:07:00.141Z,90.87
2023-01-18T12:08:00.417Z,91.18
2023-01-18T12:09:00.036Z,91.22
2023-01-18T12:09:59.987Z,91.33
2023-01-18T12:10:59.949Z,90.81
2023-01-18T12:12:17.331Z,91.95
2023-01-18T12:12:59.869Z,91.22
2023-01-18T12:13:59.835Z,91.70
2023-01-18T12:14:59.782Z,90.77
2023-01-18T12:15:59.766Z,88.61
2023-01-18T12:16:59.696Z,88.03
2023-01-18T12:18:12.374Z,87.82
2023-01-18T12:18:59.614Z,88.55
2023-01-18T12:19:59.571Z,88.30
2023-01-18T12:20:59.539Z,87.27
2023-01-18T12:21:59.484Z,87.54
2023-01-18T12:22:59.458Z,85.99
2023-01-18T12:23:59.404Z,86.54
2023-01-18T12:24:59.368Z,86.65
2023-01-18T12:26:11.433Z,87.02
2023-01-18T12:26:59.284Z,85.47
2023-01-18T12:27:59.661Z,85.36
2023-01-18T12:28:59.208Z,85.78
2023-01-18T12:29:59.159Z,85.57
2023-01-18T12:30:59.175Z,86.13
2023-01-18T12:31:59.072Z,87.41
2023-01-18T12:32:59.335Z,87.62
2023-01-18T12:33:58.988Z,88.96
2023-01-18T12:34:58.969Z,88.24
2023-01-18T12:35:58.906Z,88.86
2023-01-18T12:36:58.871Z,88.34
2023-01-18T12:37:59.053Z,88.65
2023-01-18T12:38:58.791Z,89.31
2023-01-18T12:39:58.742Z,89.38
2023-01-18T12:40:58.721Z,88.59
2023-01-18T12:41:58.659Z,88.84
2023-01-18T12:42:58.619Z,88.39
2023-01-18T12:43:58.576Z,90.12
2023-01-18T12:44:58.552Z,91.62
2023-01-18T12:45:58.509Z,91.14
2023-01-18T12:46:58.452Z,91.35
2023-01-18T12:47:58.756Z,93.01
2023-01-18T12:48:58.366Z,92.90
2023-01-18T12:49:58.327Z,93.12
2023-01-18T12:50:58.298Z,93.53
2023-01-18T12:52:12.934Z,93.63